createdAt,value
2019-01-10T00:00:14.085Z,7.93
2019-01-10T00:02:42.616Z,9.30
2019-01-10T00:05:12.102Z,11.67
2019-01-10T00:07:40.729Z,11.90
2019-01-10T00:10:13.898Z,9.73
2019-01-10T00:12:43.687Z,8.90
2019-01-10T00:15:15.037Z,8.60
2019-01-10T00:17:43.661Z,10.00
2019-01-10T00:20:14.401Z,9.23
2019-01-10T00:22:42.957Z,9.47
2019-01-10T00:25:13.572Z,9.93
2019-01-10T00:27:42.232Z,9.30
2019-01-10T00:30:19.743Z,8.60
2019-01-10T00:32:48.335Z,15.53
2019-01-10T00:35:16.829Z,10.73
2019-01-10T00:37:45.353Z,10.80
2019-01-10T00:40:16.113Z,5.43
2019-01-10T00:42:49.645Z,8.13
2019-01-10T00:45:16.878Z,11.07
2019-01-10T00:47:45.675Z,9.60
2019-01-10T00:50:22.480Z,9.63
2019-01-10T00:52:51.079Z,9.17
2019-01-10T00:55:19.524Z,6.37
2019-01-10T00:57:48.981Z,12.03
2019-01-10T01:00:23.112Z,9.27
2019-01-10T01:02:51.789Z,8.53
2019-01-10T01:05:20.971Z,13.13
2019-01-10T01:07:49.606Z,10.37
2019-01-10T01:10:23.380Z,9.47
2019-01-10T01:12:58.247Z,12.13
2019-01-10T01:15:23.284Z,8.53
2019-01-10T01:17:51.831Z,11.80
2019-01-10T01:20:22.738Z,8.63
2019-01-10T01:22:51.549Z,10.20
2019-01-10T01:25:20.008Z,8.53
2019-01-10T01:27:48.611Z,11.03
2019-01-10T01:30:19.329Z,9.53
2019-01-10T01:32:47.864Z,9.00
2019-01-10T01:35:16.865Z,8.23
2019-01-10T01:37:45.488Z,10.53
2019-01-10T01:40:16.781Z,8.33
2019-01-10T01:42:45.865Z,7.57
2019-01-10T01:45:16.777Z,8.60
2019-01-10T01:47:45.494Z,9.27
2019-01-10T01:50:19.290Z,8.13
2019-01-10T01:52:47.876Z,13.23
2019-01-10T01:55:16.401Z,10.03
2019-01-10T01:57:44.852Z,8.00
2019-01-10T02:00:16.381Z,6.70
2019-01-10T02:03:04.328Z,10.47
2019-01-10T02:05:32.879Z,7.83
2019-01-10T02:08:01.320Z,5.43
2019-01-10T02:10:29.772Z,8.93
2019-01-10T02:12:58.253Z,7.60
2019-01-10T02:15:26.941Z,11.37
2019-01-10T02:17:55.385Z,7.67
2019-01-10T02:20:43.205Z,9.00
2019-01-10T02:23:11.739Z,7.43
2019-01-10T02:25:40.280Z,8.87
2019-01-10T02:28:08.776Z,6.47
2019-01-10T02:30:42.106Z,6.53
2019-01-10T02:33:07.757Z,5.20
2019-01-10T02:35:36.256Z,6.57
2019-01-10T02:38:04.901Z,8.10
2019-01-10T02:40:33.368Z,7.70
2019-01-10T02:43:01.857Z,11.70
2019-01-10T02:45:30.349Z,7.23
2019-01-10T02:47:58.793Z,7.43
2019-01-10T02:50:27.278Z,7.17
2019-01-10T02:52:55.787Z,11.10
2019-01-10T02:55:24.245Z,6.07
2019-01-10T02:57:52.725Z,6.83
2019-01-10T03:00:23.112Z,9.80
2019-01-10T03:02:51.809Z,6.77
2019-01-10T03:05:20.707Z,8.67
2019-01-10T03:07:49.601Z,10.00
2019-01-10T03:10:23.407Z,11.90
2019-01-10T03:12:51.879Z,5.73
2019-01-10T03:15:20.331Z,11.80
2019-01-10T03:17:48.856Z,8.63
2019-01-10T03:20:22.192Z,9.67
2019-01-10T03:22:50.808Z,7.83
2019-01-10T03:25:19.429Z,7.87
2019-01-10T03:27:48.035Z,8.40
2019-01-10T03:30:20.672Z,7.10
2019-01-10T03:32:49.278Z,10.47
2019-01-10T03:35:17.830Z,6.47
2019-01-10T03:37:46.367Z,7.97
2019-01-10T03:40:19.884Z,5.60
2019-01-10T03:42:48.436Z,8.30
2019-01-10T03:45:18.802Z,10.53
2019-01-10T03:47:47.417Z,6.37
2019-01-10T03:50:17.580Z,7.83
2019-01-10T03:52:46.276Z,5.97
2019-01-10T03:55:15.200Z,8.83
2019-01-10T03:57:43.928Z,7.43
2019-01-10T04:00:18.090Z,6.43
2019-01-10T04:02:46.596Z,6.13
2019-01-10T04:05:15.269Z,7.20
2019-01-10T04:07:44.066Z,9.30
2019-01-10T04:10:15.262Z,8.00
2019-01-10T04:12:43.845Z,10.97
2019-01-10T04:15:14.396Z,7.70
2019-01-10T04:17:43.068Z,9.20
2019-01-10T04:20:14.376Z,7.40
2019-01-10T04:22:42.957Z,7.20
2019-01-10T04:25:13.541Z,6.57
2019-01-10T04:27:42.500Z,6.40
2019-01-10T04:30:19.117Z,8.17
2019-01-10T04:32:47.615Z,8.73
2019-01-10T04:35:16.143Z,6.67
2019-01-10T04:37:44.684Z,7.93
2019-01-10T04:40:18.510Z,7.40
2019-01-10T04:42:47.163Z,6.77
2019-01-10T04:45:16.117Z,8.97
2019-01-10T04:47:44.594Z,7.63
2019-01-10T04:50:14.580Z,8.87
2019-01-10T04:52:43.199Z,9.43
2019-01-10T04:55:13.096Z,8.57
2019-01-10T04:57:41.751Z,6.33
2019-01-10T05:00:16.248Z,9.47
2019-01-10T05:02:44.781Z,6.60
2019-01-10T05:05:13.308Z,8.00
2019-01-10T05:07:41.788Z,7.50
2019-01-10T05:10:11.219Z,6.47
2019-01-10T05:12:41.705Z,9.57
2019-01-10T05:15:12.859Z,8.33
2019-01-10T05:17:41.413Z,6.23
2019-01-10T05:20:18.052Z,5.73
2019-01-10T05:22:46.952Z,7.03
2019-01-10T05:25:15.587Z,7.73
2019-01-10T05:27:44.244Z,7.97
2019-01-10T05:30:15.911Z,11.23
2019-01-10T05:32:44.392Z,6.67
2019-01-10T05:35:12.858Z,7.53
2019-01-10T05:37:41.299Z,8.10
2019-01-10T05:40:12.032Z,6.63
2019-01-10T05:42:40.561Z,6.80
2019-01-10T05:45:12.074Z,9.10
2019-01-10T05:47:42.828Z,9.67
2019-01-10T05:50:13.069Z,6.63
2019-01-10T05:52:43.102Z,6.23
2019-01-10T05:55:13.905Z,5.17
2019-01-10T05:57:42.365Z,9.70
2019-01-10T06:00:17.421Z,7.27
2019-01-10T06:03:05.269Z,7.97
2019-01-10T06:05:33.720Z,8.00
2019-01-10T06:08:02.266Z,8.57
2019-01-10T06:10:30.755Z,9.73
2019-01-10T06:12:59.276Z,9.40
2019-01-10T06:15:27.762Z,8.17
2019-01-10T06:17:56.272Z,9.17
2019-01-10T06:20:25.476Z,8.27
2019-01-10T06:22:54.000Z,10.80
2019-01-10T06:25:22.540Z,7.40
2019-01-10T06:27:51.059Z,7.03
2019-01-10T06:30:21.576Z,8.60
2019-01-10T06:32:50.125Z,7.70
2019-01-10T06:35:18.657Z,7.37
2019-01-10T06:37:47.111Z,7.83
2019-01-10T06:40:18.521Z,7.07
2019-01-10T06:42:46.976Z,7.17
2019-01-10T06:45:17.090Z,8.00
2019-01-10T06:47:45.989Z,9.63
2019-01-10T06:50:16.304Z,9.13
2019-01-10T06:52:45.055Z,5.73
2019-01-10T06:55:13.614Z,8.03
2019-01-10T06:57:42.736Z,8.30
2019-01-10T07:00:19.888Z,5.93
2019-01-10T07:02:48.708Z,5.47
2019-01-10T07:05:17.167Z,8.77
2019-01-10T07:07:45.714Z,6.73
2019-01-10T07:10:19.612Z,8.90
2019-01-10T07:12:48.123Z,8.40
2019-01-10T07:15:16.595Z,6.87
2019-01-10T07:17:45.064Z,5.37
2019-01-10T07:20:15.189Z,9.17
2019-01-10T07:22:46.535Z,6.33
2019-01-10T07:25:15.002Z,11.23
2019-01-10T07:27:43.591Z,7.67
2019-01-10T07:30:17.832Z,7.60
2019-01-10T07:32:46.378Z,9.83
2019-01-10T07:35:14.826Z,6.13
2019-01-10T07:37:47.330Z,12.57
2019-01-10T07:40:16.328Z,7.83
2019-01-10T07:42:44.815Z,8.50
2019-01-10T07:45:18.823Z,7.53
2019-01-10T07:47:47.812Z,9.53
2019-01-10T07:50:18.664Z,9.80
2019-01-10T07:52:47.656Z,6.60
2019-01-10T07:55:16.133Z,8.20
2019-01-10T07:57:44.665Z,8.90
2019-01-10T08:00:16.529Z,9.97
2019-01-10T08:02:45.068Z,9.07
2019-01-10T08:05:13.921Z,8.90
2019-01-10T08:07:42.545Z,9.90
2019-01-10T08:10:14.257Z,9.73
2019-01-10T08:12:42.776Z,8.40
2019-01-10T08:15:14.742Z,7.47
2019-01-10T08:17:43.194Z,6.23
2019-01-10T08:20:12.461Z,7.97
2019-01-10T08:22:41.057Z,7.17
2019-01-10T08:25:10.055Z,10.27
2019-01-10T08:27:38.587Z,8.33
2019-01-10T08:30:16.321Z,8.23
2019-01-10T08:32:44.842Z,7.50
2019-01-10T08:35:15.250Z,8.40
2019-01-10T08:37:43.893Z,6.63
2019-01-10T08:40:12.696Z,9.93
2019-01-10T08:42:41.144Z,8.50
2019-01-10T08:45:11.021Z,6.90
2019-01-10T08:47:39.511Z,6.63
2019-01-10T08:50:11.190Z,8.20
2019-01-10T08:52:39.704Z,8.30
2019-01-10T08:55:08.469Z,11.13
2019-01-10T08:57:36.919Z,9.40
2019-01-10T09:00:09.641Z,8.47
2019-01-10T09:02:38.473Z,8.57
2019-01-10T09:05:07.494Z,7.40
2019-01-10T09:07:36.020Z,5.50
2019-01-10T09:10:07.408Z,12.33
2019-01-10T09:12:35.936Z,10.17
2019-01-10T09:15:07.157Z,7.43
2019-01-10T09:17:35.698Z,10.33
2019-01-10T09:20:07.384Z,12.53
2019-01-10T09:22:35.844Z,9.17
2019-01-10T09:25:05.288Z,11.17
2019-01-10T09:27:33.744Z,8.70
2019-01-10T09:30:02.281Z,7.30
2019-01-10T09:32:30.829Z,8.00
2019-01-10T09:34:59.288Z,6.50
2019-01-10T09:37:27.752Z,8.67
2019-01-10T09:39:56.228Z,7.03
2019-01-10T09:42:24.779Z,8.70
2019-01-10T09:44:53.304Z,11.93
2019-01-10T09:47:21.801Z,6.10
2019-01-10T09:49:50.387Z,9.87
2019-01-10T09:52:19.028Z,8.90
2019-01-10T09:54:47.517Z,8.37
2019-01-10T09:57:16.083Z,6.40
2019-01-10T09:59:44.536Z,7.90
2019-01-10T10:02:13.007Z,6.30
2019-01-10T10:04:41.472Z,7.47
2019-01-10T10:07:09.949Z,13.90
2019-01-10T10:09:38.433Z,7.10
2019-01-10T10:12:06.961Z,11.10
2019-01-10T10:14:35.414Z,9.93
2019-01-10T10:17:04.063Z,10.43
2019-01-10T10:19:32.711Z,8.17
2019-01-10T10:22:01.238Z,7.83
2019-01-10T10:24:29.831Z,11.47
2019-01-10T10:26:58.286Z,8.97
2019-01-10T10:29:46.173Z,8.07
2019-01-10T10:32:14.652Z,8.37
2019-01-10T10:34:43.124Z,11.43
2019-01-10T10:37:11.576Z,6.20
2019-01-10T10:39:40.040Z,4.50
2019-01-10T10:42:08.536Z,7.83
2019-01-10T10:44:36.981Z,7.23
2019-01-10T10:47:05.461Z,7.67
2019-01-10T10:49:34.058Z,12.97
2019-01-10T10:52:22.010Z,9.67
2019-01-10T10:54:50.496Z,6.37
2019-01-10T10:57:19.116Z,6.73
2019-01-10T10:59:47.576Z,10.10
2019-01-10T11:02:16.480Z,7.53
2019-01-10T11:04:44.925Z,8.90
2019-01-10T11:07:13.469Z,7.93
2019-01-10T11:09:42.233Z,8.17
2019-01-10T11:12:10.711Z,8.23
2019-01-10T11:14:39.221Z,4.43
2019-01-10T11:17:07.869Z,5.47
2019-01-10T11:19:36.367Z,7.30
2019-01-10T11:22:05.356Z,9.33
2019-01-10T11:24:33.916Z,6.90
2019-01-10T11:27:02.388Z,7.47
2019-01-10T11:29:30.908Z,8.63
2019-01-10T11:31:59.416Z,4.73
2019-01-10T11:34:27.925Z,4.50
2019-01-10T11:36:56.387Z,9.20
2019-01-10T11:39:24.854Z,7.00
2019-01-10T11:41:53.342Z,5.93
2019-01-10T11:44:21.876Z,5.63
2019-01-10T11:46:50.322Z,7.13
2019-01-10T11:49:18.872Z,4.90
2019-01-10T11:51:47.337Z,9.07
2019-01-10T11:54:15.804Z,5.80
2019-01-10T11:56:44.380Z,5.13
2019-01-10T11:59:12.877Z,4.87
2019-01-10T12:01:41.329Z,6.90
2019-01-10T12:04:09.829Z,4.90
2019-01-10T12:06:38.400Z,4.90
2019-01-10T12:09:07.872Z,6.93
2019-01-10T12:11:38.307Z,5.27
2019-01-10T12:14:06.711Z,8.30
2019-01-10T12:16:35.232Z,10.40
2019-01-10T12:19:03.813Z,4.57
2019-01-10T12:21:33.000Z,5.53
2019-01-10T12:24:01.458Z,5.77
2019-01-10T12:26:30.109Z,4.23
2019-01-10T12:28:58.619Z,5.87
2019-01-10T12:31:27.110Z,5.87
2019-01-10T12:33:55.613Z,8.60
2019-01-10T12:36:24.100Z,6.67
2019-01-10T12:38:52.587Z,4.40
2019-01-10T12:41:21.196Z,4.57
2019-01-10T12:43:49.784Z,8.10
2019-01-10T12:46:18.412Z,6.40
2019-01-10T12:48:46.935Z,4.43
2019-01-10T12:51:15.384Z,7.43
2019-01-10T12:53:43.864Z,7.17
2019-01-10T12:56:12.376Z,7.77
2019-01-10T12:58:40.916Z,5.63
2019-01-10T13:01:09.386Z,6.23
2019-01-10T13:03:37.851Z,7.83
2019-01-10T13:06:06.497Z,8.60
2019-01-10T13:08:34.988Z,7.63
2019-01-10T13:11:22.813Z,8.67
2019-01-10T13:13:51.355Z,3.37
2019-01-10T13:16:19.892Z,5.63
2019-01-10T13:18:48.421Z,5.00
2019-01-10T13:21:16.920Z,4.77
2019-01-10T13:23:57.186Z,8.00
2019-01-10T13:26:25.724Z,4.27
2019-01-10T13:28:54.187Z,5.23
2019-01-10T13:31:22.641Z,3.53
2019-01-10T13:33:51.149Z,9.60
2019-01-10T13:36:21.205Z,7.77
2019-01-10T13:38:49.729Z,7.13
2019-01-10T13:41:18.275Z,5.40
2019-01-10T13:43:46.732Z,7.60
2019-01-10T13:46:15.982Z,5.63
2019-01-10T13:48:51.231Z,6.53
2019-01-10T13:51:15.010Z,7.40
2019-01-10T13:53:43.486Z,8.07
2019-01-10T13:56:11.948Z,5.10
2019-01-10T13:58:43.161Z,4.70
2019-01-10T14:01:11.698Z,4.13
2019-01-10T14:03:40.146Z,7.90
2019-01-10T14:06:08.621Z,5.13
2019-01-10T14:08:37.395Z,4.50
2019-01-10T14:11:25.483Z,6.50
2019-01-10T14:13:53.930Z,6.23
2019-01-10T14:16:22.523Z,6.53
2019-01-10T14:18:51.868Z,2.80
2019-01-10T14:21:20.337Z,3.70
2019-01-10T14:23:48.859Z,8.50
2019-01-10T14:26:17.520Z,5.03
2019-01-10T14:28:46.035Z,6.53
2019-01-10T14:31:14.508Z,5.53
2019-01-10T14:33:43.153Z,5.30
2019-01-10T14:36:11.677Z,6.07
2019-01-10T14:38:40.219Z,5.57
2019-01-10T14:41:08.748Z,4.00
2019-01-10T14:43:37.200Z,3.87
2019-01-10T14:46:05.729Z,5.43
2019-01-10T14:48:34.291Z,7.97
2019-01-10T14:51:02.816Z,4.93
2019-01-10T14:53:31.289Z,4.57
2019-01-10T14:55:59.808Z,4.13
2019-01-10T14:58:28.289Z,6.03
2019-01-10T15:00:56.817Z,5.93
2019-01-10T15:03:25.268Z,2.97
2019-01-10T15:05:53.723Z,5.73
2019-01-10T15:08:22.209Z,3.30
2019-01-10T15:10:50.809Z,5.33
2019-01-10T15:13:19.332Z,3.27
2019-01-10T15:15:47.884Z,5.37
2019-01-10T15:18:16.490Z,5.30
2019-01-10T15:20:44.945Z,4.17
2019-01-10T15:23:13.433Z,4.13
2019-01-10T15:25:41.965Z,4.13
2019-01-10T15:28:13.294Z,4.97
2019-01-10T15:30:41.785Z,4.07
2019-01-10T15:33:10.301Z,4.30
2019-01-10T15:35:38.783Z,3.80
2019-01-10T15:38:07.312Z,4.93
2019-01-10T15:40:35.847Z,3.97
2019-01-10T15:43:05.048Z,5.10
2019-01-10T15:45:33.672Z,8.50
2019-01-10T15:48:02.170Z,6.97
2019-01-10T15:50:30.819Z,6.33
2019-01-10T15:52:59.290Z,4.67
2019-01-10T15:55:27.794Z,5.27
2019-01-10T15:57:56.287Z,7.43
2019-01-10T16:00:25.412Z,4.80
2019-01-10T16:02:53.913Z,6.27
2019-01-10T16:05:24.013Z,6.30
2019-01-10T16:07:52.596Z,6.27
2019-01-10T16:10:21.618Z,9.17
2019-01-10T16:12:50.164Z,8.43
2019-01-10T16:15:23.877Z,6.87
2019-01-10T16:17:52.329Z,6.57
2019-01-10T16:20:20.795Z,6.10
2019-01-10T16:22:49.357Z,7.20
2019-01-10T16:25:19.762Z,7.00
2019-01-10T16:27:48.553Z,5.07
2019-01-10T16:30:22.451Z,6.80
2019-01-10T16:32:50.916Z,7.27
2019-01-10T16:35:19.377Z,4.67
2019-01-10T16:37:47.999Z,4.07
2019-01-10T16:40:17.799Z,5.33
2019-01-10T16:42:46.351Z,4.17
2019-01-10T16:45:17.935Z,2.87
2019-01-10T16:47:46.393Z,3.83
2019-01-10T16:50:16.481Z,4.53
2019-01-10T16:52:44.956Z,5.33
2019-01-10T16:55:15.025Z,5.03
2019-01-10T16:57:43.539Z,2.07
2019-01-10T17:00:26.933Z,2.07
2019-01-10T17:02:55.391Z,3.97
2019-01-10T17:05:23.876Z,3.93
2019-01-10T17:07:52.337Z,5.10
2019-01-10T17:10:21.080Z,6.47
2019-01-10T17:12:49.547Z,2.97
2019-01-10T17:15:18.491Z,7.03
2019-01-10T17:17:47.041Z,4.73
2019-01-10T17:20:18.585Z,4.57
2019-01-10T17:22:47.088Z,4.07
2019-01-10T17:25:15.881Z,3.53
2019-01-10T17:27:44.399Z,4.67
2019-01-10T17:30:21.514Z,5.67
2019-01-10T17:32:49.960Z,4.97
2019-01-10T17:35:21.176Z,3.83
2019-01-10T17:37:49.662Z,2.90
2019-01-10T17:40:20.623Z,6.20
2019-01-10T17:42:49.319Z,4.10
2019-01-10T17:45:20.948Z,3.83
2019-01-10T17:47:49.411Z,2.57
2019-01-10T17:50:19.445Z,3.87
2019-01-10T17:52:48.042Z,3.13
2019-01-10T17:55:16.584Z,4.13
2019-01-10T17:57:45.112Z,5.70
2019-01-10T18:00:16.708Z,2.40
2019-01-10T18:02:45.225Z,5.13
2019-01-10T18:05:14.111Z,4.30
2019-01-10T18:07:42.699Z,3.17
2019-01-10T18:10:19.533Z,2.33
2019-01-10T18:12:48.191Z,3.20
2019-01-10T18:15:19.624Z,3.27
2019-01-10T18:17:50.359Z,2.47
2019-01-10T18:20:21.584Z,2.77
2019-01-10T18:22:50.086Z,5.87
2019-01-10T18:25:18.613Z,7.20
2019-01-10T18:27:47.081Z,5.20
2019-01-10T18:30:21.417Z,4.43
2019-01-10T18:32:49.873Z,4.27
2019-01-10T18:35:25.583Z,5.30
2019-01-10T18:37:49.472Z,5.03
2019-01-10T18:40:18.545Z,4.40
2019-01-10T18:42:47.041Z,4.90
2019-01-10T18:45:24.048Z,5.10
2019-01-10T18:47:56.898Z,3.90
2019-01-10T18:50:24.155Z,4.87
2019-01-10T18:52:52.761Z,4.17
2019-01-10T18:55:21.368Z,3.77
2019-01-10T18:57:49.816Z,5.13
2019-01-10T19:00:29.186Z,5.13
2019-01-10T19:02:57.976Z,4.10
2019-01-10T19:05:27.074Z,6.30
2019-01-10T19:07:55.560Z,5.73
2019-01-10T19:10:24.760Z,4.07
2019-01-10T19:12:53.463Z,5.50
2019-01-10T19:15:22.073Z,4.10
2019-01-10T19:17:50.671Z,3.03
2019-01-10T19:20:24.409Z,4.10
2019-01-10T19:22:53.022Z,7.00
2019-01-10T19:25:21.557Z,3.73
2019-01-10T19:27:50.037Z,6.20
2019-01-10T19:30:21.367Z,5.37
2019-01-10T19:32:49.951Z,7.50
2019-01-10T19:35:18.408Z,6.83
2019-01-10T19:37:46.942Z,5.40
2019-01-10T19:40:18.035Z,6.60
2019-01-10T19:42:46.649Z,5.87
2019-01-10T19:45:17.464Z,5.87
2019-01-10T19:47:45.932Z,10.73
2019-01-10T19:50:17.520Z,5.30
2019-01-10T19:52:46.055Z,5.30
2019-01-10T19:55:16.498Z,6.03
2019-01-10T19:57:45.080Z,4.43
2019-01-10T20:00:27.913Z,5.43
2019-01-10T20:02:56.510Z,7.63
2019-01-10T20:05:25.052Z,3.97
2019-01-10T20:07:53.748Z,4.70
2019-01-10T20:10:22.274Z,5.00
2019-01-10T20:12:50.895Z,8.67
2019-01-10T20:15:19.369Z,6.80
2019-01-10T20:17:47.974Z,7.60
2019-01-10T20:20:19.501Z,5.53
2019-01-10T20:22:48.069Z,4.07
2019-01-10T20:25:16.531Z,5.83
2019-01-10T20:27:45.001Z,5.77
2019-01-10T20:30:18.431Z,5.60
2019-01-10T20:32:46.979Z,8.40
2019-01-10T20:35:15.663Z,7.23
2019-01-10T20:37:44.232Z,6.13
2019-01-10T20:40:18.121Z,9.30
2019-01-10T20:42:46.717Z,5.87
2019-01-10T20:45:16.814Z,4.77
2019-01-10T20:47:45.553Z,6.03
2019-01-10T20:50:16.377Z,6.23
2019-01-10T20:52:44.994Z,6.27
2019-01-10T20:55:15.368Z,5.77
2019-01-10T20:57:44.064Z,7.63
2019-01-10T21:00:24.456Z,7.53
2019-01-10T21:02:52.975Z,5.77
2019-01-10T21:05:21.446Z,6.10
2019-01-10T21:07:50.854Z,6.40
2019-01-10T21:10:21.896Z,5.40
2019-01-10T21:12:50.917Z,4.53
2019-01-10T21:15:26.515Z,6.73
2019-01-10T21:17:55.444Z,7.40
2019-01-10T21:20:24.366Z,8.77
2019-01-10T21:22:53.152Z,4.17
2019-01-10T21:25:21.612Z,5.43
2019-01-10T21:27:50.069Z,6.60
2019-01-10T21:30:23.530Z,6.00
2019-01-10T21:32:52.091Z,10.80
2019-01-10T21:35:20.899Z,5.27
2019-01-10T21:37:49.539Z,7.43
2019-01-10T21:40:20.383Z,5.97
2019-01-10T21:42:50.552Z,7.10
2019-01-10T21:45:19.866Z,7.13
2019-01-10T21:47:48.384Z,6.77
2019-01-10T21:50:25.194Z,7.13
2019-01-10T21:52:53.863Z,7.43
2019-01-10T21:55:22.598Z,7.13
2019-01-10T21:57:51.195Z,5.23
2019-01-10T22:00:39.053Z,11.07
2019-01-10T22:03:07.496Z,7.03
2019-01-10T22:05:36.028Z,8.97
2019-01-10T22:08:06.164Z,6.83
2019-01-10T22:10:35.284Z,9.40
2019-01-10T22:13:04.036Z,9.60
2019-01-10T22:15:32.495Z,7.77
2019-01-10T22:18:00.956Z,7.53
2019-01-10T22:20:29.589Z,9.03
2019-01-10T22:22:58.040Z,7.83
2019-01-10T22:25:45.858Z,8.17
2019-01-10T22:28:14.313Z,8.13
2019-01-10T22:30:42.844Z,8.40
2019-01-10T22:33:30.694Z,9.37
2019-01-10T22:35:59.213Z,8.97
2019-01-10T22:38:27.673Z,10.80
2019-01-10T22:40:56.303Z,10.60
2019-01-10T22:43:24.764Z,10.60
2019-01-10T22:45:53.239Z,10.93
2019-01-10T22:48:21.724Z,9.30
2019-01-10T22:50:50.245Z,9.80
2019-01-10T22:53:18.863Z,13.63
2019-01-10T22:55:47.388Z,12.70
2019-01-10T22:58:16.321Z,11.53
2019-01-10T23:01:01.311Z,11.53
2019-01-10T23:03:33.183Z,14.47
2019-01-10T23:06:01.639Z,10.53
2019-01-10T23:08:30.323Z,12.47
2019-01-10T23:10:58.780Z,11.23
2019-01-10T23:13:27.320Z,10.87
2019-01-10T23:15:55.867Z,11.70
2019-01-10T23:18:24.394Z,12.80
2019-01-10T23:20:58.703Z,13.50
2019-01-10T23:23:27.192Z,11.40
2019-01-10T23:25:55.909Z,13.60
2019-01-10T23:28:24.524Z,11.23
2019-01-10T23:31:00.932Z,13.53
2019-01-10T23:33:29.472Z,12.63
2019-01-10T23:36:03.120Z,13.63
2019-01-10T23:38:31.975Z,12.63
2019-01-10T23:41:00.690Z,15.20
2019-01-10T23:43:29.240Z,12.20
2019-01-10T23:45:57.763Z,12.67
2019-01-10T23:48:26.373Z,13.93
2019-01-10T23:50:54.919Z,14.73
2019-01-10T23:53:23.537Z,14.87
2019-01-10T23:55:52.003Z,15.10
2019-01-10T23:58:20.475Z,12.83
